Allentown, PA

1:22 PM EST on January 24, 2017 (GMT -0500)
South Filmore Street | | Change Station
Active Advisory: Small Craft Advisory Active Notice: Public Information Statement

Elev 341 ft 40.59 °N, 75.45 °W | Updated 20 seconds ago

Overcast
Overcast
44.4 °F
Feels Like 39 °F
N
11.0
Wind Variable Wind from ESE

Today
High -- | Low -- °F
--% Chance of Precip.
Yesterday
High -- | Low -- °F
Precip. -- in
Pressure 29.41 in
Visibility 10.0 miles
Clouds Overcast 3900 ft
Windchill 39 °F
Dew Point 39 °F
Humidity 83%
Rainfall 0.00 in
Snow Depth Not available.
7:18 AM 5:10 PM
Waning Crescent, 10% visible
METAR KXLL 241755Z AUTO 33011G17KT 10SM OVC039 06/01 A2941 RMK AO2
Pressure 29.41 in
Visibility 10.0 miles
Clouds Overcast 3900 ft
Windchill 39 °F
Dew Point 39 °F
Humidity 83%
Rainfall 0.00 in
Snow Depth Not available.
7:18 AM 5:10 PM
Waning Crescent, 10% visible
METAR KXLL 241755Z AUTO 33011G17KT 10SM OVC039 06/01 A2941 RMK AO2

Get Your Daily Forecast Email!

Thanks for signing up!

Be on the lookout for a verification email in your inbox.

You'll start receiving the daily forecast at 8 AM.

×

10-Day Weather Forecast

Almanac

Astronomy

Jan. 24, 2017 Rise Set
Actual Time
Civil Twilight
Nautical Twilight
Astronomical Twilight
Moon
Length of Visible Light
Length of Day
Tomorrow will be .
, % of the Moon is Illuminated

Today's Extremes

State Highs State Lows

Community

WunderPhotos

Upload Photos

1,962,540 photos uploaded!

WunderBlog® & News

Nearby

Air Quality

  Air Quality AQ Index Pollutant
Not available.

Snow Depth

Station Depth Elevation

Earthquake Activity

City Distance Mag. Time & Date
Minimum magnitude displayed is 2.5.

Coastal Water Temperatures

Place Temperature

Stations

Nearby Weather Stations

Station Location Temp. Windchill Dew Point Humidity Wind Precip. Elev Updated Type
                   

Watches & Warnings

Small Craft Advisory
Issued: 9:42 AM EST Jan. 24, 2017 – National Weather Service

... Small Craft Advisory remains in effect until 1 am EST
Wednesday...

* winds... northwest 15 to 20 kt with gusts up to 30 kt.

* Seas... 1 to 3 feet.

* Location... upper Delaware Bay.

Precautionary/preparedness actions...

A Small Craft Advisory means that wind speeds of 25 to 33 knots
are expected to produce hazardous wave conditions to small craft.
Inexperienced mariners... especially those operating smaller
vessels should avoid navigating in these conditions.